createdAt,value
2022-09-24T00:02:23.576Z,4.37
2022-09-24T00:04:52.007Z,4.23
2022-09-24T00:07:20.581Z,6.53
2022-09-24T00:09:49.209Z,5.57
2022-09-24T00:12:18.045Z,4.30
2022-09-24T00:14:46.503Z,4.13
2022-09-24T00:17:14.852Z,4.43
2022-09-24T00:19:43.276Z,3.20
2022-09-24T00:22:11.795Z,4.47
2022-09-24T00:24:58.416Z,4.00
2022-09-24T00:27:28.430Z,3.13
2022-09-24T00:29:56.816Z,7.50
2022-09-24T00:32:25.439Z,4.87
2022-09-24T00:34:55.255Z,4.30
2022-09-24T00:37:23.624Z,3.33
2022-09-24T00:39:52.082Z,5.37
2022-09-24T00:42:23.751Z,3.43
2022-09-24T00:44:56.847Z,3.63
2022-09-24T00:47:42.431Z,6.20
2022-09-24T00:50:32.408Z,4.90
2022-09-24T00:53:05.879Z,3.53
2022-09-24T00:55:36.639Z,4.57
2022-09-24T00:58:08.170Z,4.40
2022-09-24T01:00:45.447Z,6.20
2022-09-24T01:03:20.369Z,4.80
2022-09-24T01:05:49.095Z,3.40
2022-09-24T01:08:19.592Z,3.20
2022-09-24T01:11:08.421Z,3.90
2022-09-24T01:14:09.812Z,4.00
2022-09-24T01:17:10.498Z,3.33
2022-09-24T01:19:57.113Z,3.40
2022-09-24T01:22:47.446Z,3.03
2022-09-24T01:26:00.287Z,7.00
2022-09-24T01:28:51.529Z,9.10
2022-09-24T01:31:30.644Z,3.73
2022-09-24T01:34:03.095Z,4.73
2022-09-24T01:36:34.305Z,3.40
2022-09-24T01:39:04.697Z,3.43
2022-09-24T01:41:35.039Z,5.80
2022-09-24T01:44:07.942Z,4.33
2022-09-24T01:46:40.239Z,6.93
2022-09-24T01:49:09.703Z,5.30
2022-09-24T01:51:59.154Z,4.43
2022-09-24T01:54:33.961Z,3.07
2022-09-24T01:57:27.818Z,5.03
2022-09-24T02:00:11.761Z,3.10
2022-09-24T02:02:46.137Z,4.13
2022-09-24T02:05:27.078Z,5.00
2022-09-24T02:08:18.089Z,3.53
2022-09-24T02:10:51.625Z,4.30
2022-09-24T02:13:25.986Z,3.00
2022-09-24T02:16:00.070Z,4.40
2022-09-24T02:18:34.016Z,3.77
2022-09-24T02:21:07.524Z,3.13
2022-09-24T02:23:38.425Z,4.23
2022-09-24T02:26:07.436Z,5.10
2022-09-24T02:28:36.295Z,4.40
2022-09-24T02:31:13.089Z,4.30
2022-09-24T02:34:03.880Z,3.20
2022-09-24T02:36:32.935Z,3.50
2022-09-24T02:39:01.355Z,3.50
2022-09-24T02:41:30.913Z,4.00
2022-09-24T02:43:59.869Z,2.90
2022-09-24T02:46:28.290Z,2.80
2022-09-24T02:48:57.237Z,5.53
2022-09-24T02:51:26.291Z,7.40
2022-09-24T02:53:54.668Z,3.27
2022-09-24T02:56:23.212Z,3.00
2022-09-24T02:58:51.666Z,4.80
2022-09-24T03:01:20.495Z,3.63
2022-09-24T03:03:49.083Z,2.87
2022-09-24T03:06:17.464Z,3.33
2022-09-24T03:08:46.176Z,4.47
2022-09-24T03:11:18.464Z,4.93
2022-09-24T03:13:47.540Z,3.47
2022-09-24T03:16:17.065Z,5.57
2022-09-24T03:18:45.598Z,3.83
2022-09-24T03:21:16.029Z,3.33
2022-09-24T03:23:44.946Z,7.13
2022-09-24T03:26:13.925Z,5.57
2022-09-24T03:28:42.296Z,6.53
2022-09-24T03:31:11.271Z,3.60
2022-09-24T03:33:42.474Z,7.03
2022-09-24T03:36:17.615Z,5.33
2022-09-24T03:38:47.643Z,5.20
2022-09-24T03:41:17.655Z,5.50
2022-09-24T03:43:46.073Z,13.37
2022-09-24T03:46:14.952Z,9.07
2022-09-24T03:48:43.969Z,4.53
2022-09-24T03:51:20.843Z,5.03
2022-09-24T03:53:49.734Z,3.97
2022-09-24T03:56:18.125Z,5.03
2022-09-24T03:58:48.864Z,3.90
2022-09-24T04:01:22.214Z,5.47
2022-09-24T04:03:51.560Z,7.67
2022-09-24T04:06:25.468Z,3.70
2022-09-24T04:08:54.645Z,3.87
2022-09-24T04:11:24.863Z,5.50
2022-09-24T04:13:53.733Z,5.30
2022-09-24T04:16:22.579Z,5.13
2022-09-24T04:18:51.795Z,3.10
2022-09-24T04:21:20.197Z,4.03
2022-09-24T04:23:48.949Z,5.93
2022-09-24T04:26:17.930Z,3.90
2022-09-24T04:28:46.308Z,6.40
2022-09-24T04:31:14.739Z,4.90
2022-09-24T04:33:43.220Z,4.80
2022-09-24T04:36:11.577Z,4.23
2022-09-24T04:38:40.023Z,4.13
2022-09-24T04:41:09.540Z,3.70
2022-09-24T04:43:37.953Z,7.77
2022-09-24T04:46:07.297Z,4.93
2022-09-24T04:48:38.869Z,3.67
2022-09-24T04:51:11.294Z,6.87
2022-09-24T04:53:39.652Z,4.57
2022-09-24T04:56:12.825Z,6.47
2022-09-24T04:58:41.532Z,6.00
2022-09-24T05:01:10.424Z,4.60
2022-09-24T05:03:38.869Z,5.33
2022-09-24T05:06:07.341Z,5.80
2022-09-24T05:08:35.691Z,3.40
2022-09-24T05:11:04.242Z,4.50
2022-09-24T05:13:32.611Z,4.90
2022-09-24T05:16:01.714Z,7.30
2022-09-24T05:18:30.189Z,4.87
2022-09-24T05:20:58.562Z,5.07
2022-09-24T05:23:26.933Z,5.83
2022-09-24T05:26:13.913Z,4.40
2022-09-24T05:28:43.662Z,5.57
2022-09-24T05:31:12.107Z,4.30
2022-09-24T05:33:40.592Z,4.00
2022-09-24T05:36:09.072Z,6.90
2022-09-24T05:38:41.454Z,4.47
2022-09-24T05:41:10.181Z,4.60
2022-09-24T05:43:38.775Z,5.67
2022-09-24T05:46:08.184Z,5.77
2022-09-24T05:48:36.805Z,4.83
2022-09-24T05:51:06.202Z,4.20
2022-09-24T05:53:34.878Z,5.07
2022-09-24T05:56:03.555Z,5.43
2022-09-24T05:58:32.483Z,7.77
2022-09-24T06:01:04.113Z,8.20
2022-09-24T06:03:32.633Z,4.30
2022-09-24T06:06:02.906Z,4.93
2022-09-24T06:08:33.616Z,3.90
2022-09-24T06:11:03.490Z,4.10
2022-09-24T06:13:32.380Z,4.10
2022-09-24T06:16:11.465Z,5.30
2022-09-24T06:18:42.107Z,6.37
2022-09-24T06:21:14.082Z,6.33
2022-09-24T06:23:43.407Z,4.90
2022-09-24T06:26:13.614Z,4.30
2022-09-24T06:28:42.543Z,5.20
2022-09-24T06:31:12.761Z,4.50
2022-09-24T06:33:41.731Z,7.00
2022-09-24T06:36:10.465Z,6.73
2022-09-24T06:38:41.146Z,7.87
2022-09-24T06:41:10.984Z,4.83
2022-09-24T06:43:39.398Z,5.33
2022-09-24T06:46:07.934Z,5.53
2022-09-24T06:48:38.932Z,4.90
2022-09-24T06:51:07.601Z,4.20
2022-09-24T06:53:35.975Z,4.53
2022-09-24T06:56:04.982Z,4.80
2022-09-24T06:58:34.754Z,5.77
2022-09-24T07:01:04.125Z,4.90
2022-09-24T07:03:34.300Z,4.00
2022-09-24T07:06:05.590Z,5.93
2022-09-24T07:08:34.658Z,8.57
2022-09-24T07:11:03.251Z,4.27
2022-09-24T07:13:31.857Z,4.23
2022-09-24T07:16:02.192Z,4.30
2022-09-24T07:18:30.675Z,5.40
2022-09-24T07:20:59.218Z,4.50
2022-09-24T07:23:28.581Z,4.10
2022-09-24T07:25:58.104Z,5.20
2022-09-24T07:28:26.936Z,5.50
2022-09-24T07:31:02.590Z,4.23
2022-09-24T07:33:33.222Z,4.10
2022-09-24T07:36:08.417Z,5.60
2022-09-24T07:38:40.118Z,4.07
2022-09-24T07:41:10.312Z,5.07
2022-09-24T07:43:39.408Z,4.77
2022-09-24T07:46:08.044Z,5.30
2022-09-24T07:48:36.670Z,6.00
2022-09-24T07:51:07.116Z,4.30
2022-09-24T07:53:35.674Z,3.57
2022-09-24T07:56:04.127Z,4.30
2022-09-24T07:58:32.536Z,4.17
2022-09-24T08:01:02.179Z,5.80
2022-09-24T08:03:30.626Z,4.40
2022-09-24T08:06:00.698Z,4.43
2022-09-24T08:08:29.143Z,5.03
2022-09-24T08:10:57.566Z,4.70
2022-09-24T08:13:27.949Z,5.90
2022-09-24T08:16:03.099Z,5.30
2022-09-24T08:18:33.476Z,6.97
2022-09-24T08:21:12.801Z,9.67
2022-09-24T08:23:41.485Z,9.00
2022-09-24T08:26:11.286Z,3.90
2022-09-24T08:28:41.326Z,7.50
2022-09-24T08:31:14.395Z,4.87
2022-09-24T08:33:44.176Z,5.23
2022-09-24T08:36:12.546Z,4.83
2022-09-24T08:38:41.167Z,9.77
2022-09-24T08:41:15.456Z,5.43
2022-09-24T08:44:02.204Z,5.60
2022-09-24T08:47:09.791Z,6.70
2022-09-24T08:49:47.571Z,4.37
2022-09-24T08:52:34.439Z,5.50
2022-09-24T08:55:08.522Z,6.83
2022-09-24T08:57:51.227Z,6.30
2022-09-24T09:00:20.644Z,4.67
2022-09-24T09:03:06.735Z,6.43
2022-09-24T09:05:54.402Z,5.80
2022-09-24T09:09:05.677Z,4.50
2022-09-24T09:11:33.602Z,4.90
2022-09-24T09:14:14.095Z,5.30
2022-09-24T09:16:51.195Z,6.20
2022-09-24T09:19:22.770Z,7.07
2022-09-24T09:21:59.625Z,7.47
2022-09-24T09:25:17.838Z,4.43
2022-09-24T09:27:47.261Z,8.83
2022-09-24T09:30:18.906Z,6.37
2022-09-24T09:33:13.278Z,4.97
2022-09-24T09:36:10.632Z,6.17
2022-09-24T09:38:51.074Z,4.97
2022-09-24T09:41:41.566Z,5.07
2022-09-24T09:44:26.534Z,5.60
2022-09-24T09:47:13.311Z,4.70
2022-09-24T09:49:44.149Z,5.37
2022-09-24T09:52:21.734Z,5.90
2022-09-24T09:54:50.735Z,5.70
2022-09-24T09:57:23.966Z,6.40
2022-09-24T09:59:55.070Z,13.03
2022-09-24T10:02:32.234Z,6.60
2022-09-24T10:05:03.596Z,6.87
2022-09-24T10:07:33.270Z,6.10
2022-09-24T10:10:17.535Z,7.90
2022-09-24T10:12:46.547Z,5.70
2022-09-24T10:15:20.443Z,6.00
2022-09-24T10:17:52.954Z,6.57
2022-09-24T10:20:24.048Z,6.57
2022-09-24T10:23:00.085Z,8.50
2022-09-24T10:25:30.581Z,6.77
2022-09-24T10:28:21.756Z,7.33
2022-09-24T10:30:59.016Z,6.07
2022-09-24T10:33:30.564Z,5.80
2022-09-24T10:36:28.410Z,6.80
2022-09-24T10:39:18.274Z,6.80
2022-09-24T10:41:54.591Z,8.93
2022-09-24T10:44:23.507Z,6.97
2022-09-24T10:46:54.669Z,7.77
2022-09-24T10:49:41.337Z,5.80
2022-09-24T10:52:18.987Z,7.53
2022-09-24T10:55:13.395Z,7.73
2022-09-24T10:58:25.638Z,6.90
2022-09-24T11:01:13.582Z,8.20
2022-09-24T11:04:07.340Z,7.60
2022-09-24T11:07:17.201Z,7.50
2022-09-24T11:09:48.325Z,9.47
2022-09-24T11:13:03.132Z,6.67
2022-09-24T11:16:09.875Z,11.43
2022-09-24T11:19:04.849Z,7.60
2022-09-24T11:21:47.280Z,7.50
2022-09-24T11:24:37.289Z,7.53
2022-09-24T11:27:19.965Z,10.53
2022-09-24T11:30:17.895Z,9.47
2022-09-24T11:33:22.825Z,8.33
2022-09-24T11:36:17.245Z,6.60
2022-09-24T11:38:51.953Z,9.17
2022-09-24T11:41:38.983Z,10.23
2022-09-24T11:44:19.585Z,8.30
2022-09-24T11:46:48.093Z,10.73
2022-09-24T11:49:25.624Z,7.30
2022-09-24T11:52:05.867Z,8.20
2022-09-24T11:54:37.207Z,9.00
2022-09-24T11:57:29.705Z,9.23
2022-09-24T12:00:13.130Z,11.47
2022-09-24T12:02:52.704Z,11.13
2022-09-24T12:05:21.135Z,10.37
2022-09-24T12:08:19.430Z,9.20
2022-09-24T12:11:15.125Z,13.67
2022-09-24T12:14:03.397Z,11.80
2022-09-24T12:16:38.628Z,8.77
2022-09-24T12:19:20.156Z,9.37
2022-09-24T12:21:51.423Z,11.70
2022-09-24T12:24:36.383Z,11.73
2022-09-24T12:27:13.369Z,13.53
2022-09-24T12:30:57.266Z,9.37
2022-09-24T12:33:53.643Z,14.17
2022-09-24T12:36:57.680Z,8.37
2022-09-24T12:39:39.259Z,11.13
2022-09-24T12:42:12.412Z,11.03
2022-09-24T12:44:49.947Z,7.60
2022-09-24T12:47:27.803Z,8.60
2022-09-24T12:50:03.233Z,9.80
2022-09-24T12:52:38.460Z,11.10
2022-09-24T12:55:19.716Z,12.30
2022-09-24T12:58:08.881Z,9.50
2022-09-24T13:00:46.435Z,10.23
2022-09-24T13:03:44.765Z,9.00
2022-09-24T13:06:33.896Z,13.97
2022-09-24T13:09:03.574Z,10.03
2022-09-24T13:11:37.463Z,9.57
2022-09-24T13:14:15.074Z,10.40
2022-09-24T13:16:47.626Z,7.93
2022-09-24T13:19:26.277Z,8.57
2022-09-24T13:22:00.437Z,15.67
2022-09-24T13:24:54.219Z,9.87
2022-09-24T13:27:38.549Z,9.20
2022-09-24T13:30:10.370Z,9.30
2022-09-24T13:33:00.503Z,8.40
2022-09-24T13:35:59.518Z,9.37
2022-09-24T13:38:39.955Z,7.60
2022-09-24T13:41:26.619Z,8.57
2022-09-24T13:44:14.722Z,8.83
2022-09-24T13:46:46.530Z,8.30
2022-09-24T13:49:19.800Z,10.33
2022-09-24T13:51:57.633Z,8.43
2022-09-24T13:54:37.674Z,8.27
2022-09-24T13:57:31.058Z,9.10
2022-09-24T14:00:18.000Z,10.97
2022-09-24T14:03:01.332Z,9.47
2022-09-24T14:05:31.445Z,8.20
2022-09-24T14:08:07.507Z,8.90
2022-09-24T14:10:36.915Z,9.43
2022-09-24T14:13:22.282Z,9.47
2022-09-24T14:16:10.313Z,11.87
2022-09-24T14:18:38.932Z,8.50
2022-09-24T14:21:16.379Z,9.47
2022-09-24T14:23:49.759Z,12.40
2022-09-24T14:26:31.698Z,9.80
2022-09-24T14:29:02.656Z,12.30
2022-09-24T14:31:31.466Z,11.40
2022-09-24T14:34:05.329Z,10.30
2022-09-24T14:36:37.479Z,12.33
2022-09-24T14:39:07.349Z,12.83
2022-09-24T14:41:37.836Z,9.53
2022-09-24T14:44:27.306Z,10.63
2022-09-24T14:47:00.509Z,10.87
2022-09-24T14:49:53.472Z,10.60
2022-09-24T14:52:41.617Z,9.17
2022-09-24T14:55:20.547Z,12.50
2022-09-24T14:57:53.899Z,12.47
2022-09-24T15:00:31.617Z,14.77
2022-09-24T15:03:13.322Z,11.20
2022-09-24T15:05:41.931Z,16.70
2022-09-24T15:08:29.246Z,10.10
2022-09-24T15:11:01.380Z,11.17
2022-09-24T15:13:58.078Z,13.50
2022-09-24T15:16:34.728Z,11.43
2022-09-24T15:19:09.295Z,9.77
2022-09-24T15:21:49.693Z,11.07
2022-09-24T15:24:20.169Z,10.30
2022-09-24T15:27:02.382Z,10.83
2022-09-24T15:29:31.130Z,14.63
2022-09-24T15:31:59.992Z,12.47
2022-09-24T15:34:29.839Z,10.30
2022-09-24T15:37:00.253Z,10.17
2022-09-24T15:39:29.980Z,13.37
2022-09-24T15:41:58.430Z,8.17
2022-09-24T15:44:32.896Z,12.70
2022-09-24T15:47:02.408Z,9.83
2022-09-24T15:49:30.799Z,9.93
2022-09-24T15:52:07.270Z,8.83
2022-09-24T15:54:35.886Z,10.93
2022-09-24T15:57:05.147Z,8.13
2022-09-24T15:59:33.926Z,9.50
2022-09-24T16:02:12.610Z,10.43
2022-09-24T16:04:41.105Z,11.00
2022-09-24T16:07:09.498Z,11.13
2022-09-24T16:09:37.893Z,10.00
2022-09-24T16:12:06.622Z,10.80
2022-09-24T16:14:35.032Z,10.83
2022-09-24T16:17:03.376Z,10.73
2022-09-24T16:19:31.959Z,12.37
2022-09-24T16:22:00.438Z,10.93
2022-09-24T16:24:28.879Z,12.10
2022-09-24T16:26:57.314Z,8.23
2022-09-24T16:29:25.674Z,9.87
2022-09-24T16:31:54.045Z,13.00
2022-09-24T16:34:22.492Z,12.33
2022-09-24T16:36:51.002Z,10.07
2022-09-24T16:39:20.249Z,8.70
2022-09-24T16:41:52.614Z,11.93
2022-09-24T16:44:20.996Z,9.10
2022-09-24T16:46:49.406Z,9.53
2022-09-24T16:49:18.149Z,8.10
2022-09-24T16:51:46.486Z,11.03
2022-09-24T16:54:14.868Z,9.33
2022-09-24T16:56:43.524Z,11.70
2022-09-24T16:59:12.650Z,12.57
2022-09-24T17:01:43.132Z,9.90
2022-09-24T17:04:12.067Z,9.80
2022-09-24T17:06:41.083Z,9.57
2022-09-24T17:09:28.956Z,7.47
2022-09-24T17:11:58.009Z,9.00
2022-09-24T17:14:26.639Z,8.67
2022-09-24T17:16:55.166Z,10.60
2022-09-24T17:19:23.594Z,10.23
2022-09-24T17:21:52.895Z,10.27
2022-09-24T17:24:22.250Z,11.90
2022-09-24T17:26:50.953Z,9.50
2022-09-24T17:29:21.451Z,8.30
2022-09-24T17:31:50.452Z,7.40
2022-09-24T17:34:19.229Z,10.70
2022-09-24T17:36:47.675Z,7.20
2022-09-24T17:39:16.128Z,8.03
2022-09-24T17:41:44.529Z,10.17
2022-09-24T17:44:14.014Z,7.93
2022-09-24T17:46:42.715Z,8.23
2022-09-24T17:49:12.019Z,8.83
2022-09-24T17:51:40.587Z,8.63
2022-09-24T17:54:17.066Z,8.57
2022-09-24T17:56:45.996Z,7.60
2022-09-24T17:59:15.961Z,13.07
2022-09-24T18:01:45.437Z,9.83
2022-09-24T18:04:19.874Z,12.13
2022-09-24T18:06:49.753Z,8.47
2022-09-24T18:09:20.706Z,8.97
2022-09-24T18:11:52.281Z,8.07
2022-09-24T18:14:23.021Z,10.20
2022-09-24T18:16:51.835Z,9.67
2022-09-24T18:19:20.370Z,7.93
2022-09-24T18:21:52.078Z,9.57
2022-09-24T18:24:20.511Z,10.63
2022-09-24T18:26:51.678Z,8.53
2022-09-24T18:29:21.132Z,10.50
2022-09-24T18:31:50.184Z,8.50
2022-09-24T18:34:18.594Z,12.20
2022-09-24T18:36:47.266Z,8.70
2022-09-24T18:39:23.672Z,11.33
2022-09-24T18:41:53.821Z,9.47
2022-09-24T18:44:22.302Z,10.50
2022-09-24T18:46:50.842Z,9.53
2022-09-24T18:49:20.178Z,8.80
2022-09-24T18:51:49.830Z,11.07
2022-09-24T18:54:19.010Z,8.30
2022-09-24T18:56:48.023Z,10.43
2022-09-24T18:59:19.405Z,9.90
2022-09-24T19:01:49.465Z,10.90
2022-09-24T19:04:18.891Z,11.53
2022-09-24T19:06:52.638Z,26.07
2022-09-24T19:09:21.394Z,14.00
2022-09-24T19:11:50.296Z,14.50
2022-09-24T19:14:21.359Z,11.90
2022-09-24T19:16:50.131Z,12.07
2022-09-24T19:19:18.495Z,11.23
2022-09-24T19:21:47.889Z,15.00
2022-09-24T19:24:16.351Z,10.30
2022-09-24T19:26:45.349Z,11.77
2022-09-24T19:29:14.454Z,12.03
2022-09-24T19:31:46.356Z,12.30
2022-09-24T19:34:15.466Z,11.17
2022-09-24T19:36:45.403Z,12.03
2022-09-24T19:39:16.517Z,9.63
2022-09-24T19:41:45.231Z,12.00
2022-09-24T19:44:14.540Z,9.87
2022-09-24T19:46:43.281Z,11.40
2022-09-24T19:49:11.816Z,11.93
2022-09-24T19:51:40.879Z,11.80
2022-09-24T19:54:11.218Z,13.43
2022-09-24T19:56:40.847Z,24.73
2022-09-24T19:59:10.325Z,10.10
2022-09-24T20:01:38.886Z,12.17
2022-09-24T20:04:08.484Z,12.03
2022-09-24T20:06:38.544Z,12.73
2022-09-24T20:09:07.355Z,24.20
2022-09-24T20:11:36.534Z,11.80
2022-09-24T20:14:12.231Z,15.47
2022-09-24T20:16:43.537Z,10.00
2022-09-24T20:19:15.202Z,10.10
2022-09-24T20:21:43.708Z,10.70
2022-09-24T20:24:13.931Z,10.63
2022-09-24T20:27:00.532Z,10.27
2022-09-24T20:29:28.914Z,10.77
2022-09-24T20:31:57.786Z,9.77
2022-09-24T20:34:34.390Z,8.00
2022-09-24T20:37:05.089Z,9.80
2022-09-24T20:39:34.377Z,8.53
2022-09-24T20:42:06.671Z,7.20
2022-09-24T20:44:35.491Z,8.40
2022-09-24T20:47:04.156Z,6.03
2022-09-24T20:49:34.070Z,7.53
2022-09-24T20:52:04.046Z,8.70
2022-09-24T20:54:32.866Z,7.60
2022-09-24T20:57:01.489Z,8.63
2022-09-24T20:59:30.663Z,7.47
2022-09-24T21:01:59.174Z,8.50
2022-09-24T21:04:27.879Z,7.03
2022-09-24T21:06:56.355Z,7.70
2022-09-24T21:09:24.749Z,6.20
2022-09-24T21:11:53.959Z,5.43
2022-09-24T21:14:22.791Z,6.73
2022-09-24T21:16:51.261Z,6.70
2022-09-24T21:19:20.242Z,7.73
2022-09-24T21:21:48.809Z,7.97
2022-09-24T21:24:18.128Z,6.00
2022-09-24T21:26:47.563Z,5.53
2022-09-24T21:29:21.690Z,8.17
2022-09-24T21:31:51.091Z,8.83
2022-09-24T21:34:21.761Z,6.67
2022-09-24T21:36:52.911Z,5.70
2022-09-24T21:39:29.754Z,4.57
2022-09-24T21:42:00.166Z,4.70
2022-09-24T21:44:32.672Z,5.10
2022-09-24T21:47:01.705Z,4.20
2022-09-24T21:49:33.226Z,4.67
2022-09-24T21:52:01.705Z,8.57
2022-09-24T21:54:31.197Z,4.37
2022-09-24T21:56:59.649Z,3.77
2022-09-24T21:59:46.399Z,4.17
2022-09-24T22:02:15.397Z,6.13
2022-09-24T22:04:45.171Z,5.13
2022-09-24T22:07:13.694Z,3.70
2022-09-24T22:09:42.081Z,3.20
2022-09-24T22:12:10.483Z,6.87
2022-09-24T22:14:38.976Z,4.20
2022-09-24T22:17:08.353Z,5.13
2022-09-24T22:19:37.057Z,3.83
2022-09-24T22:22:05.563Z,9.30
2022-09-24T22:24:33.957Z,4.90
2022-09-24T22:27:02.331Z,3.63
2022-09-24T22:29:31.433Z,6.30
2022-09-24T22:31:59.781Z,8.20
2022-09-24T22:34:46.486Z,6.80
2022-09-24T22:37:15.983Z,3.73
2022-09-24T22:39:44.367Z,5.00
2022-09-24T22:42:15.076Z,4.13
2022-09-24T22:44:43.445Z,4.40
2022-09-24T22:47:11.831Z,6.67
2022-09-24T22:49:40.286Z,5.67
2022-09-24T22:52:08.752Z,5.00
2022-09-24T22:54:37.101Z,10.93
2022-09-24T22:57:05.607Z,6.17
2022-09-24T22:59:34.104Z,6.03
2022-09-24T23:02:02.583Z,5.47
2022-09-24T23:04:31.277Z,13.80
2022-09-24T23:06:59.785Z,19.33
2022-09-24T23:09:28.304Z,4.50
2022-09-24T23:11:57.438Z,5.03
2022-09-24T23:14:25.789Z,6.33
2022-09-24T23:16:54.376Z,11.83
2022-09-24T23:19:22.843Z,4.67
2022-09-24T23:21:52.341Z,4.70
2022-09-24T23:24:22.683Z,6.30
2022-09-24T23:26:52.078Z,4.40
2022-09-24T23:29:20.436Z,11.50
2022-09-24T23:31:49.027Z,15.90
2022-09-24T23:34:17.451Z,4.33
2022-09-24T23:36:47.015Z,5.03
2022-09-24T23:39:15.812Z,19.00
2022-09-24T23:41:44.322Z,4.00
2022-09-24T23:44:12.899Z,6.67
2022-09-24T23:46:41.500Z,3.67
2022-09-24T23:49:10.541Z,5.60
2022-09-24T23:51:39.033Z,18.30
2022-09-24T23:54:07.706Z,9.63
2022-09-24T23:56:36.527Z,7.90
2022-09-24T23:59:04.990Z,3.93
